East TN State Univ, Tennessee
Current Conditions -  °F | °C
As of 12:53 PM on Saturday 22 Nov 2014 (Local Time) from KTRI Reporting Station
Broken Clouds Broken Clouds  
Wind Chill: 53°   Ceiling: 25000
Heat Index: 53°   Visibility: 10mi
Dew Point: 22°   Wind: 0mph
Humidity: 30%   Direction: NA
Pressure: 30.34"   Gusts: NA
Location:  36.3658°N, 82.4151°W
Report Text: KTRI 221753Z 00000KT 10SM FEW150 BKN250 12/M06 A3034 RMK AO2 SLP271 T01171056 10117 21061 58031
Loading
Personal Weather Stations






























Interactive Weather Map New forecast layout! Learn more

10-Day Weather Forecast

Advertisements
Track Severe Weather on mobile